Time;durP1;ratioP1;P1;durP2;ratioP2;P2;SDS_P1;SDS_P2;PMS_P1;PMS_P2;Temp;Humidity;BMP_temperature;BMP_pressure;BME280_temperature;BME280_humidity;BME280_pressure;Samples;Min_cycle;Max_cycle;Signal;HPM_P1;HPM_P2
2022/11/02 00:01:45;;;;;;;;;1.00;1.00;;;;;21.49;45.59;101431.56;5056664;28;45346;-58
2022/11/02 00:04:10;;;;;;;;;1.00;1.00;;;;;21.51;45.37;101445.53;5056592;28;45368;-58
2022/11/02 00:06:36;;;;;;;;;1.00;1.00;;;;;21.52;45.67;101441.09;5056274;28;46458;-58
2022/11/02 00:09:02;;;;;;;;;3.50;0.25;;;;;21.51;45.82;101442.88;5056012;28;45251;-56
2022/11/02 00:11:27;;;;;;;;;1.00;0.00;;;;;21.48;45.84;101440.38;5056290;28;45432;-58
2022/11/02 00:13:53;;;;;;;;;0.00;0.00;;;;;21.49;45.79;101435.97;5054801;28;45412;-58
2022/11/02 00:16:19;;;;;;;;;0.33;0.33;;;;;21.50;45.67;101442.97;5055435;28;66575;-58
2022/11/02 00:18:48;;;;;;;;;1.00;0.00;;;;;21.50;45.63;101443.81;5056213;28;45244;-58
2022/11/02 00:21:16;;;;;;;;;1.00;1.00;;;;;21.47;45.86;101439.56;5056190;28;45390;-55
2022/11/02 00:23:42;;;;;;;;;1.00;1.00;;;;;21.49;45.66;101443.91;5056381;28;45392;-58
2022/11/02 00:26:08;;;;;;;;;1.00;0.00;;;;;21.50;45.88;101445.59;5056026;28;45303;-56
2022/11/02 00:28:34;;;;;;;;;0.50;0.50;;;;;21.51;45.52;101455.19;5055947;28;45366;-57
2022/11/02 00:30:59;;;;;;;;;0.50;0.50;;;;;21.49;45.70;101457.91;5056195;28;45276;-55
2022/11/02 00:33:25;;;;;;;;;1.00;1.00;;;;;21.47;45.71;101454.50;5056325;28;45255;-57
2022/11/02 00:35:50;;;;;;;;;0.00;0.00;;;;;21.47;45.60;101465.94;5056016;28;46704;-57
2022/11/02 00:38:15;;;;;;;;;4.00;1.00;;;;;21.49;45.62;101463.19;5055908;28;45451;-58
2022/11/02 00:40:41;;;;;;;;;1.00;1.00;;;;;21.49;45.58;101473.75;5056118;28;45296;-58
2022/11/02 00:43:06;;;;;;;;;0.00;0.00;;;;;21.49;45.59;101473.75;5056212;28;45536;-56
2022/11/02 00:45:31;;;;;;;;;1.75;0.00;;;;;21.48;45.54;101474.66;5055798;28;46554;-58
2022/11/02 00:47:57;;;;;;;;;0.50;0.50;;;;;21.48;45.43;101477.31;5054594;28;45433;-58
2022/11/02 00:50:22;;;;;;;;;1.75;1.00;;;;;21.49;45.78;101478.19;5054616;28;45449;-57
2022/11/02 00:52:47;;;;;;;;;1.00;1.00;;;;;21.47;45.67;101492.28;5055810;28;45375;-58
2022/11/02 00:55:13;;;;;;;;;0.50;0.50;;;;;21.47;45.74;101487.03;5037444;28;49653;-56
2022/11/02 00:57:39;;;;;;;;;1.00;0.50;;;;;21.45;45.42;101482.72;5055754;28;46551;-58
2022/11/02 01:00:07;;;;;;;;;0.00;0.00;;;;;21.48;45.59;101498.41;5055919;28;45342;-58
2022/11/02 01:02:33;;;;;;;;;2.00;0.00;;;;;21.48;45.70;101503.69;5055785;28;45260;-55
2022/11/02 01:04:59;;;;;;;;;0.00;0.00;;;;;21.47;45.70;101499.34;5055856;28;46324;-58
2022/11/02 01:07:26;;;;;;;;;2.00;1.00;;;;;21.44;45.60;101497.72;5055619;28;45331;-57
2022/11/02 01:09:52;;;;;;;;;0.75;0.75;;;;;21.45;45.87;101503.81;5055673;28;45341;-57
2022/11/02 01:12:17;;;;;;;;;0.00;0.00;;;;;21.45;45.73;101509.97;5055838;28;45272;-58
2022/11/02 01:14:45;;;;;;;;;2.00;0.00;;;;;21.45;45.45;101515.25;5053815;28;46676;-56
2022/11/02 01:17:10;;;;;;;;;0.00;0.00;;;;;21.47;45.57;101512.53;5055652;28;45330;-58
2022/11/02 01:19:35;;;;;;;;;0.75;0.75;;;;;21.43;45.62;101503.06;5054384;28;45740;-57
2022/11/02 01:22:01;;;;;;;;;1.00;1.00;;;;;21.46;45.51;101516.09;5057670;28;45791;-57
2022/11/02 01:24:26;;;;;;;;;0.50;0.50;;;;;21.43;45.38;101511.81;5058963;28;47662;-58
2022/11/02 01:26:51;;;;;;;;;1.00;1.00;;;;;21.46;45.85;101510.81;5058739;28;45322;-56
2022/11/02 01:29:17;;;;;;;;;0.50;0.25;;;;;21.45;45.65;101519.66;5057692;28;45245;-56
2022/11/02 01:31:43;;;;;;;;;0.75;0.75;;;;;21.44;45.61;101513.53;5057636;28;45284;-56
2022/11/02 01:34:10;;;;;;;;;1.00;1.00;;;;;21.45;45.44;101517.00;5057168;28;46158;-57
2022/11/02 01:36:35;;;;;;;;;1.00;0.00;;;;;21.45;45.85;101524.91;5058570;28;45938;-57
2022/11/02 01:39:00;;;;;;;;;0.00;0.00;;;;;21.45;45.66;101524.91;5059091;28;45361;-58
2022/11/02 01:41:26;;;;;;;;;0.00;0.00;;;;;21.43;45.56;101527.66;5058873;28;45540;-57
2022/11/02 01:43:55;;;;;;;;;0.25;0.25;;;;;21.42;45.48;101527.72;5058479;28;45428;-58
2022/11/02 01:46:35;;;;;;;;;2.00;0.00;;;;;21.44;45.43;101528.50;5058432;28;45449;-59
2022/11/02 01:49:07;;;;;;;;;0.50;0.00;;;;;21.44;45.43;101528.50;5058908;28;45330;-58
2022/11/02 01:51:40;;;;;;;;;0.00;0.00;;;;;21.40;45.43;101527.78;5059094;28;45877;-55
2022/11/02 01:54:12;;;;;;;;;0.00;0.00;;;;;21.43;45.71;101546.09;5058125;28;45502;-56
2022/11/02 01:56:39;;;;;;;;;0.00;0.00;;;;;21.42;45.51;101546.19;5058095;28;45484;-58
2022/11/02 01:59:12;;;;;;;;;1.75;1.00;;;;;21.42;45.50;101541.75;5058228;28;45283;-58
2022/11/02 02:01:37;;;;;;;;;0.00;0.00;;;;;21.42;45.42;101554.94;5057139;28;45586;-56
2022/11/02 02:04:04;;;;;;;;;1.00;0.00;;;;;21.42;45.61;101565.50;5058508;28;45924;-57
2022/11/02 02:06:29;;;;;;;;;1.00;1.00;;;;;21.42;45.29;101562.00;5058469;28;45390;-58
2022/11/02 02:08:59;;;;;;;;;0.25;0.25;;;;;21.42;45.47;101562.84;5058274;28;45374;-57
2022/11/02 02:11:26;;;;;;;;;0.50;0.50;;;;;21.42;45.57;101564.66;5058380;28;45346;-56
2022/11/02 02:13:58;;;;;;;;;0.50;0.50;;;;;21.42;45.59;101557.59;5057761;28;46075;-58
2022/11/02 02:16:53;;;;;;;;;0.50;0.00;;;;;21.43;45.53;101561.09;5057485;28;45270;-58
2022/11/02 02:19:37;;;;;;;;;0.00;0.00;;;;;21.39;45.38;101555.09;5058205;28;45292;-56
2022/11/02 02:22:19;;;;;;;;;0.00;0.00;;;;;21.40;45.58;101556.78;5058606;28;45422;-57
2022/11/02 02:25:16;;;;;;;;;1.00;0.00;;;;;21.41;45.47;101560.31;5057639;28;45272;-57
2022/11/02 02:28:06;;;;;;;;;0.25;0.25;;;;;21.40;45.41;101567.34;5057916;28;45593;-58
2022/11/02 02:30:39;;;;;;;;;0.50;0.50;;;;;21.41;45.73;101576.13;5058377;28;45413;-57
2022/11/02 02:33:13;;;;;;;;;3.00;1.00;;;;;21.40;45.62;101569.97;5058044;28;45521;-56
2022/11/02 02:35:54;;;;;;;;;1.25;1.25;;;;;21.39;45.64;101568.25;5057736;28;45255;-58
2022/11/02 02:38:40;;;;;;;;;0.00;0.00;;;;;21.40;45.58;101579.69;5057768;28;45464;-55
2022/11/02 02:41:13;;;;;;;;;1.00;1.00;;;;;21.38;45.19;101581.53;5057880;28;45299;-55
2022/11/02 02:43:48;;;;;;;;;1.00;1.00;;;;;21.39;45.77;101581.44;5056781;28;45509;-57
2022/11/02 02:46:28;;;;;;;;;0.50;0.50;;;;;21.38;45.45;101579.78;5057625;28;46690;-57
2022/11/02 02:48:56;;;;;;;;;2.00;0.00;;;;;21.38;45.44;101579.78;5057628;28;45307;-58
2022/11/02 02:51:27;;;;;;;;;2.00;1.00;;;;;21.38;45.63;101576.25;5057650;28;45560;-55
2022/11/02 02:53:58;;;;;;;;;1.00;0.25;;;;;21.37;45.33;101577.19;5056302;28;45577;-58
2022/11/02 02:56:28;;;;;;;;;0.50;0.50;;;;;21.38;45.48;101586.81;5056222;28;45478;-56
2022/11/02 02:59:17;;;;;;;;;0.00;0.00;;;;;21.38;45.23;101581.53;5057406;28;45339;-58
2022/11/02 03:01:44;;;;;;;;;0.00;0.00;;;;;21.38;45.44;101578.91;5057341;28;45411;-56
2022/11/02 03:04:13;;;;;;;;;1.00;1.00;;;;;21.37;45.67;101579.81;5057516;28;45315;-58
2022/11/02 03:06:42;;;;;;;;;0.00;0.00;;;;;21.38;45.57;101581.53;5057328;28;45258;-58
2022/11/02 03:09:26;;;;;;;;;3.00;1.00;;;;;21.38;45.64;101592.09;5057209;28;45392;-58
2022/11/02 03:12:16;;;;;;;;;1.00;1.00;;;;;21.35;45.45;101584.31;5057322;28;45805;-57
2022/11/02 03:15:12;;;;;;;;;1.25;1.00;;;;;21.36;45.34;101600.06;5057259;28;45629;-57
2022/11/02 03:18:03;;;;;;;;;0.00;0.00;;;;;21.36;45.66;101594.81;5057175;28;45282;-55
2022/11/02 03:20:52;;;;;;;;;0.00;0.00;;;;;21.36;45.21;101593.94;5056971;28;45396;-55
2022/11/02 03:23:51;;;;;;;;;3.00;0.00;;;;;21.32;45.59;101595.84;5057132;28;45261;-57
2022/11/02 03:26:28;;;;;;;;;0.00;0.00;;;;;21.36;45.74;101599.19;5057035;28;45502;-55
2022/11/02 03:29:08;;;;;;;;;2.00;1.00;;;;;21.35;45.50;101597.50;5055338;28;48414;-55
2022/11/02 03:31:55;;;;;;;;;1.00;0.00;;;;;21.35;45.53;101610.69;5057196;28;45243;-56
2022/11/02 03:34:38;;;;;;;;;0.50;0.00;;;;;21.35;45.46;101605.41;5056814;28;45402;-57
2022/11/02 03:37:13;;;;;;;;;0.25;0.25;;;;;21.34;45.48;101601.91;5057566;28;45398;-55
2022/11/02 03:39:43;;;;;;;;;2.25;0.00;;;;;21.34;45.39;101616.88;5056741;28;45247;-55
2022/11/02 03:42:14;;;;;;;;;1.75;1.00;;;;;21.34;45.50;101607.19;5056832;28;45414;-55
2022/11/02 03:44:40;;;;;;;;;1.00;0.75;;;;;21.34;45.63;101617.75;5056409;28;45264;-58
2022/11/02 03:47:10;;;;;;;;;1.00;1.00;;;;;21.31;45.32;101617.88;5057132;28;45414;-56
2022/11/02 03:49:39;;;;;;;;;1.00;1.00;;;;;21.34;45.66;101622.16;5056873;28;46382;-57
2022/11/02 03:52:09;;;;;;;;;0.00;0.00;;;;;21.34;45.32;101630.06;5056777;28;45362;-55
2022/11/02 03:55:03;;;;;;;;;1.75;1.00;;;;;21.33;45.42;101631.00;5057054;28;45322;-56
2022/11/02 03:57:35;;;;;;;;;2.75;1.00;;;;;21.29;45.54;101631.16;5056843;28;45323;-55
2022/11/02 04:00:12;;;;;;;;;2.00;0.75;;;;;21.33;45.12;101647.66;5054594;28;46749;-56
2022/11/02 04:02:41;;;;;;;;;1.00;0.00;;;;;21.33;45.23;101649.47;5055363;28;45799;-57
2022/11/02 04:05:07;;;;;;;;;0.00;0.00;;;;;21.31;45.70;101647.75;5056807;28;45322;-57
2022/11/02 04:10:19;;;;;;;;;2.00;2.00;;;;;21.29;45.74;101657.50;5055960;28;45701;-58
2022/11/02 04:15:29;;;;;;;;;0.00;0.00;;;;;21.31;45.40;101666.22;5056216;28;45365;-55
2022/11/02 04:20:38;;;;;;;;;1.50;0.25;;;;;21.30;45.71;101664.50;5056382;28;45493;-57
2022/11/02 04:25:54;;;;;;;;;1.25;0.00;;;;;21.30;45.42;101675.03;5056090;28;45339;-56
2022/11/02 04:28:20;;;;;;;;;2.00;0.50;;;;;21.27;45.24;101672.53;5056454;28;45412;-57
2022/11/02 04:30:45;;;;;;;;;2.00;1.00;;;;;21.27;45.58;101671.69;5055879;28;46371;-58
2022/11/02 04:35:57;;;;;;;;;1.50;0.00;;;;;21.29;45.25;101680.38;5055988;28;45389;-56
2022/11/02 04:38:41;;;;;;;;;0.00;0.00;;;;;21.29;45.21;101697.06;5056189;28;45299;-58
2022/11/02 04:44:02;;;;;;;;;3.00;1.00;;;;;21.26;45.58;101699.81;5055953;28;45771;-57
2022/11/02 04:46:30;;;;;;;;;0.75;0.25;;;;;21.27;45.55;101704.19;5055909;28;45235;-56
2022/11/02 04:48:55;;;;;;;;;1.00;1.00;;;;;21.28;45.43;101705.88;5056176;28;45453;-58
2022/11/02 04:51:23;;;;;;;;;1.00;1.00;;;;;21.28;45.31;101710.28;5055675;28;46692;-57
2022/11/02 04:53:50;;;;;;;;;1.50;0.00;;;;;21.27;45.31;101714.72;5055771;28;45633;-58
2022/11/02 04:56:15;;;;;;;;;2.00;0.00;;;;;21.28;45.24;101718.19;5056961;28;45342;-57
2022/11/02 04:58:41;;;;;;;;;2.00;1.00;;;;;21.28;45.14;101715.56;5059439;28;46432;-57
2022/11/02 05:01:11;;;;;;;;;4.25;0.75;;;;;21.28;45.14;101712.94;5059089;28;46096;-58
2022/11/02 05:03:36;;;;;;;;;1.00;1.00;;;;;21.25;45.46;101721.84;5059217;28;45504;-58
2022/11/02 05:06:01;;;;;;;;;1.00;1.00;;;;;21.26;45.11;101731.47;5059163;28;45453;-58
2022/11/02 05:08:27;;;;;;;;;1.00;1.00;;;;;21.27;45.28;101727.06;5059317;28;45326;-56
2022/11/02 05:10:58;;;;;;;;;2.00;0.00;;;;;21.24;45.50;101720.13;5058929;28;45473;-56
2022/11/02 05:13:25;;;;;;;;;1.00;0.50;;;;;21.25;45.45;101732.38;5058875;28;45237;-57
2022/11/02 05:15:54;;;;;;;;;2.00;0.75;;;;;21.26;45.02;101738.53;5058994;28;45464;-58
2022/11/02 05:18:19;;;;;;;;;0.25;0.25;;;;;21.26;45.19;101741.16;5059309;28;45331;-58
2022/11/02 05:20:52;;;;;;;;;0.75;0.75;;;;;21.26;45.33;101736.72;5058857;28;45332;-55
2022/11/02 05:23:18;;;;;;;;;0.75;0.75;;;;;21.26;45.09;101746.44;5057344;28;46004;-58
2022/11/02 05:25:54;;;;;;;;;0.50;0.50;;;;;21.24;45.07;101738.56;5059243;28;45407;-58
2022/11/02 05:28:20;;;;;;;;;0.00;0.00;;;;;21.23;45.38;101743.94;5059196;28;45284;-55
2022/11/02 05:30:46;;;;;;;;;1.00;1.00;;;;;21.25;44.93;101745.56;5058801;28;45992;-57
2022/11/02 05:33:11;;;;;;;;;1.00;1.00;;;;;21.21;45.34;101744.00;5058966;28;45331;-57
2022/11/02 05:35:36;;;;;;;;;0.00;0.00;;;;;21.24;45.12;101753.56;5058723;28;45385;-59
2022/11/02 05:38:02;;;;;;;;;2.00;0.25;;;;;21.23;45.35;101752.69;5058812;28;45507;-58
2022/11/02 05:40:27;;;;;;;;;0.75;0.75;;;;;21.21;45.25;101749.28;5058490;28;46086;-56
2022/11/02 05:43:00;;;;;;;;;0.00;0.00;;;;;21.21;45.10;101753.69;5058653;28;45285;-58
2022/11/02 05:45:26;;;;;;;;;1.00;0.25;;;;;21.23;45.29;101773.78;5058811;28;45279;-57
2022/11/02 05:47:51;;;;;;;;;1.75;0.75;;;;;21.21;45.00;101753.69;5058817;28;45304;-57
2022/11/02 05:50:17;;;;;;;;;2.00;0.50;;;;;21.22;45.02;101766.78;5058181;28;45254;-57
2022/11/02 05:52:43;;;;;;;;;1.00;1.00;;;;;21.21;45.29;101757.19;5058717;28;45773;-57
2022/11/02 05:55:08;;;;;;;;;1.00;1.00;;;;;21.20;44.92;101757.25;5056265;28;60265;-57
2022/11/02 05:57:33;;;;;;;;;1.75;0.00;;;;;21.21;44.93;101765.09;5058633;28;45223;-56
2022/11/02 05:59:59;;;;;;;;;0.25;0.25;;;;;21.19;45.32;101761.66;5058112;28;45978;-58
2022/11/02 06:02:25;;;;;;;;;1.00;0.50;;;;;21.22;45.24;101768.59;5058232;28;45716;-58
2022/11/02 06:04:50;;;;;;;;;1.25;1.25;;;;;21.21;45.32;101756.31;5058349;28;45216;-56
2022/11/02 06:07:15;;;;;;;;;0.75;0.00;;;;;21.18;45.36;101754.69;5058491;28;45560;-57
2022/11/02 06:09:41;;;;;;;;;1.50;1.00;;;;;21.20;45.01;101758.09;5057969;28;45583;-56
2022/11/02 06:12:06;;;;;;;;;1.00;1.00;;;;;21.20;45.12;101755.47;5058112;28;45323;-57
2022/11/02 06:14:32;;;;;;;;;1.00;1.00;;;;;21.21;45.29;101761.59;5057892;28;45578;-58
2022/11/02 06:16:57;;;;;;;;;1.00;0.00;;;;;21.20;45.23;101760.75;5058051;28;45739;-58
2022/11/02 06:19:22;;;;;;;;;1.00;0.00;;;;;21.20;45.13;101773.94;5058007;28;46429;-57
2022/11/02 06:21:48;;;;;;;;;2.00;1.00;;;;;21.20;44.93;101768.66;5058164;28;45828;-58
2022/11/02 06:24:13;;;;;;;;;0.75;0.75;;;;;21.20;45.01;101779.19;5058228;28;45330;-58
2022/11/02 06:26:38;;;;;;;;;1.50;1.00;;;;;21.19;45.08;101788.03;5058145;28;45368;-58
2022/11/02 06:29:04;;;;;;;;;1.00;1.00;;;;;21.19;45.11;101789.78;5055931;28;61553;-57
2022/11/02 06:31:29;;;;;;;;;2.00;1.00;;;;;21.18;44.99;101791.59;5057715;28;45548;-57
2022/11/02 06:33:54;;;;;;;;;1.00;1.00;;;;;21.19;45.40;101792.44;5057796;28;45356;-58
2022/11/02 06:36:20;;;;;;;;;1.00;1.00;;;;;21.17;45.28;101787.22;5057981;28;45632;-58
2022/11/02 06:38:45;;;;;;;;;0.00;0.00;;;;;21.17;44.74;101788.06;5057764;28;51616;-57
2022/11/02 06:41:10;;;;;;;;;1.75;1.00;;;;;21.14;45.11;101790.88;5057758;28;45405;-59
2022/11/02 06:43:37;;;;;;;;;2.00;1.00;;;;;21.18;45.02;101796.88;5057719;28;45391;-58
2022/11/02 06:46:03;;;;;;;;;0.75;0.75;;;;;21.17;45.04;101800.41;5057706;28;45289;-58
2022/11/02 06:48:28;;;;;;;;;1.00;1.00;;;;;21.17;44.88;101788.06;5055791;28;47450;-56
2022/11/02 06:50:54;;;;;;;;;1.00;1.00;;;;;21.16;45.04;101794.31;5057541;28;45359;-58
2022/11/02 06:53:19;;;;;;;;;3.50;2.00;;;;;21.16;44.99;101803.97;5057891;28;45403;-57
2022/11/02 06:55:51;;;;;;;;;1.00;1.00;;;;;21.17;45.05;101809.16;5057609;28;45609;-58
2022/11/02 06:58:16;;;;;;;;;1.50;1.00;;;;;21.17;44.94;101813.59;5057741;28;46111;-57
2022/11/02 07:00:42;;;;;;;;;3.00;1.00;;;;;21.16;45.30;101814.50;5057349;28;45359;-57
2022/11/02 07:03:09;;;;;;;;;2.00;1.00;;;;;21.16;45.00;101820.66;5057361;28;45712;-57
2022/11/02 07:05:35;;;;;;;;;2.50;1.00;;;;;21.16;44.68;101825.06;5057573;28;45553;-57
2022/11/02 07:08:01;;;;;;;;;1.00;1.00;;;;;21.16;44.95;101825.06;5055892;28;47199;-57
2022/11/02 07:10:27;;;;;;;;;2.50;1.50;;;;;21.15;44.79;101812.81;5057068;28;45333;-56
2022/11/02 07:12:54;;;;;;;;;2.00;1.50;;;;;21.16;45.19;101811.88;5056904;28;45444;-57
2022/11/02 07:15:21;;;;;;;;;2.25;1.00;;;;;21.16;44.81;101819.78;5056371;28;45410;-58
2022/11/02 07:17:46;;;;;;;;;1.00;1.00;;;;;21.14;45.03;101813.72;5057412;28;46020;-55
2022/11/02 07:20:12;;;;;;;;;0.75;0.75;;;;;21.13;45.23;101809.38;5054897;28;45298;-57
2022/11/02 07:22:37;;;;;;;;;1.00;1.00;;;;;21.16;44.98;101819.78;5057302;28;45243;-56
2022/11/02 07:25:03;;;;;;;;;5.00;1.00;;;;;21.16;45.06;101825.06;5057398;28;45361;-58
2022/11/02 07:27:28;;;;;;;;;2.75;0.25;;;;;21.15;44.77;101836.53;5056860;28;46009;-58
2022/11/02 07:29:54;;;;;;;;;2.00;1.00;;;;;21.15;45.16;101833.88;5057018;28;45327;-57
2022/11/02 07:32:19;;;;;;;;;1.00;1.00;;;;;21.15;44.79;101833.88;5056049;28;45486;-58
2022/11/02 07:34:44;;;;;;;;;3.75;1.25;;;;;21.15;45.08;101840.03;5057187;28;45293;-58
2022/11/02 07:37:10;;;;;;;;;1.00;1.00;;;;;21.15;44.85;101845.31;5056691;28;46257;-58
2022/11/02 07:39:35;;;;;;;;;1.00;1.00;;;;;21.15;45.05;101847.94;5056693;28;45339;-58
2022/11/02 07:42:00;;;;;;;;;5.00;1.00;;;;;21.15;45.25;101844.44;5056883;28;45334;-59
2022/11/02 07:44:26;;;;;;;;;3.00;1.75;;;;;21.15;45.04;101844.44;5055769;28;45483;-55
2022/11/02 07:46:51;;;;;;;;;2.25;0.25;;;;;21.11;44.79;101833.16;5056548;28;55067;-58
2022/11/02 07:49:17;;;;;;;;;1.00;1.00;;;;;21.12;44.72;101834.88;5056634;28;45303;-55
2022/11/02 07:51:42;;;;;;;;;1.00;1.00;;;;;21.16;44.85;101835.59;5056671;28;45352;-57
2022/11/02 07:54:08;;;;;;;;;1.00;1.00;;;;;21.13;44.91;101835.72;5056682;28;45452;-55
2022/11/02 07:56:33;;;;;;;;;2.00;1.00;;;;;21.14;45.12;101842.72;5054985;28;46180;-56
2022/11/02 07:58:58;;;;;;;;;0.00;0.00;;;;;21.15;45.00;101844.44;5056495;28;45421;-58
2022/11/02 08:01:24;;;;;;;;;1.50;1.00;;;;;21.15;44.78;101849.72;5056787;28;45433;-57
2022/11/02 08:03:49;;;;;;;;;2.00;2.00;;;;;21.15;44.72;101860.25;5055783;28;45388;-56
2022/11/02 08:06:15;;;;;;;;;2.50;1.25;;;;;21.11;44.84;101851.63;5056173;28;46082;-57
2022/11/02 08:08:40;;;;;;;;;2.00;1.00;;;;;21.12;45.05;101852.47;5056244;28;45399;-57
2022/11/02 08:11:07;;;;;;;;;3.25;1.75;;;;;21.15;44.95;101849.72;5056317;28;45305;-57
2022/11/02 08:13:33;;;;;;;;;0.00;0.00;;;;;21.14;44.52;101848.88;5056372;28;45279;-58
2022/11/02 08:15:58;;;;;;;;;1.25;1.00;;;;;21.14;44.73;101848.88;5055755;28;45428;-57
2022/11/02 08:18:26;;;;;;;;;2.25;2.25;;;;;21.14;44.77;101853.25;5056517;28;45181;-57
2022/11/02 08:20:54;;;;;;;;;3.00;1.25;;;;;21.15;45.09;101849.72;5056641;28;45453;-57
2022/11/02 08:23:19;;;;;;;;;1.75;1.50;;;;;21.15;45.06;101854.97;5056492;28;45255;-56
2022/11/02 08:25:47;;;;;;;;;2.25;2.00;;;;;21.13;44.67;101841.00;5055944;28;46166;-59
2022/11/02 08:28:18;;;;;;;;;2.25;2.00;;;;;21.16;45.03;101851.44;5056082;28;45237;-56
2022/11/02 08:30:44;;;;;;;;;2.50;2.00;;;;;21.15;44.94;101866.41;5058111;28;45415;-57
2022/11/02 08:33:14;;;;;;;;;1.50;1.25;;;;;21.15;44.97;101865.53;5059935;28;45627;-57
2022/11/02 08:35:41;;;;;;;;;2.50;1.00;;;;;21.16;44.65;101864.59;5059463;28;45401;-57
2022/11/02 08:38:07;;;;;;;;;3.75;2.00;;;;;21.16;44.92;101864.59;5059640;28;45666;-55
2022/11/02 08:40:34;;;;;;;;;3.25;2.00;;;;;21.15;45.06;101857.63;5058286;28;45437;-58
2022/11/02 08:43:01;;;;;;;;;3.00;1.00;;;;;21.16;44.61;101864.59;5059778;28;45278;-57
2022/11/02 08:45:28;;;;;;;;;2.75;2.00;;;;;21.16;44.71;101867.25;5059766;28;45977;-57
2022/11/02 08:47:54;;;;;;;;;3.25;2.00;;;;;21.16;44.99;101864.59;5058362;28;45747;-58
2022/11/02 08:50:19;;;;;;;;;5.00;3.00;;;;;21.16;44.61;101862.84;5059489;28;45340;-58
2022/11/02 08:52:45;;;;;;;;;1.25;1.00;;;;;21.17;44.98;101866.31;5059599;28;45334;-58
2022/11/02 08:55:10;;;;;;;;;1.00;1.00;;;;;21.14;44.78;101858.53;5058683;28;57704;-56
2022/11/02 08:57:50;;;;;;;;;1.00;1.00;;;;;21.17;44.55;101863.69;5059218;28;45385;-58
2022/11/02 09:00:17;;;;;;;;;1.75;1.50;;;;;21.18;44.55;101868.03;5059389;28;45448;-56
2022/11/02 09:02:42;;;;;;;;;1.25;1.25;;;;;21.17;44.91;101866.31;5059524;28;45458;-56
2022/11/02 09:05:09;;;;;;;;;1.00;1.00;;;;;21.16;44.98;101862.84;5058636;28;59402;-55
2022/11/02 09:07:34;;;;;;;;;1.25;1.00;;;;;21.17;44.88;101864.53;5059243;28;45316;-55
2022/11/02 09:09:59;;;;;;;;;1.00;1.00;;;;;21.17;44.73;101868.97;5059165;28;45298;-58
2022/11/02 09:12:25;;;;;;;;;3.50;2.00;;;;;21.16;44.78;101860.22;5058386;28;45269;-56
2022/11/02 09:14:50;;;;;;;;;2.75;2.00;;;;;21.18;44.76;101862.78;5058639;28;45303;-58
2022/11/02 09:17:15;;;;;;;;;3.50;1.25;;;;;21.17;44.87;101861.06;5058894;28;45281;-55
2022/11/02 09:19:41;;;;;;;;;3.00;2.00;;;;;21.15;44.74;101855.84;5058931;28;45649;-58
2022/11/02 09:22:06;;;;;;;;;5.00;1.00;;;;;21.17;44.85;101853.97;5057931;28;45419;-56
2022/11/02 09:24:32;;;;;;;;;2.50;1.00;;;;;21.18;44.75;101844.31;5058609;28;46565;-57
2022/11/02 09:26:57;;;;;;;;;1.00;1.00;;;;;21.17;44.67;101837.31;5059090;28;45376;-57
2022/11/02 09:29:23;;;;;;;;;3.25;1.75;;;;;21.16;44.72;101843.50;5058911;28;45523;-58
2022/11/02 09:31:48;;;;;;;;;1.75;1.75;;;;;21.16;44.98;101843.50;5059030;28;45303;-57
2022/11/02 09:34:16;;;;;;;;;3.67;2.00;;;;;21.19;44.61;101851.31;5057799;28;67603;-58
2022/11/02 09:36:42;;;;;;;;;2.25;1.75;;;;;21.18;44.64;101849.59;5056814;28;55578;-56
2022/11/02 09:39:08;;;;;;;;;2.00;2.00;;;;;21.20;45.00;101852.16;5058287;28;45228;-56
2022/11/02 09:41:45;;;;;;;;;1.75;1.75;;;;;21.19;45.10;101840.75;5058217;28;45499;-55
2022/11/02 09:44:13;;;;;;;;;2.00;1.00;;;;;21.21;44.82;101848.59;5058498;28;46453;-57
2022/11/02 09:46:41;;;;;;;;;3.50;1.00;;;;;21.21;44.87;101845.97;5058570;28;45337;-56
2022/11/02 09:49:12;;;;;;;;;5.50;1.75;;;;;21.23;44.80;101833.56;5058575;28;45520;-57
2022/11/02 09:51:43;;;;;;;;;4.00;1.00;;;;;21.19;44.75;101832.84;5058585;28;45562;-55
2022/11/02 09:54:22;;;;;;;;;1.00;1.00;;;;;21.24;45.10;101843.19;5058241;28;46097;-55
2022/11/02 09:56:49;;;;;;;;;1.25;1.25;;;;;21.23;45.14;101837.06;5058463;28;45793;-59
2022/11/02 09:59:16;;;;;;;;;5.50;2.25;;;;;21.26;45.10;101839.56;5058321;28;45401;-57
2022/11/02 10:02:00;;;;;;;;;2.75;2.00;;;;;21.28;45.01;101839.50;5058450;28;45522;-55
2022/11/02 10:05:06;;;;;;;;;3.75;1.75;;;;;21.29;45.21;101847.34;5058157;28;46334;-55
2022/11/02 10:08:05;;;;;;;;;4.50;2.00;;;;;21.29;45.03;101841.19;5058525;28;45855;-56
2022/11/02 10:10:36;;;;;;;;;2.25;1.75;;;;;21.32;45.26;101841.09;5057319;28;45486;-54
2022/11/02 10:13:22;;;;;;;;;2.00;2.00;;;;;21.34;45.38;101848.91;5058415;28;45534;-57
2022/11/02 10:15:51;;;;;;;;;1.75;1.50;;;;;21.34;45.32;101844.53;5057985;28;46799;-55
2022/11/02 10:18:28;;;;;;;;;4.25;2.00;;;;;21.34;45.21;101846.28;5058042;28;45418;-56
2022/11/02 10:21:11;;;;;;;;;2.00;2.00;;;;;21.35;45.33;101840.09;5056933;28;45346;-57
2022/11/02 10:23:40;;;;;;;;;4.50;3.25;;;;;21.36;45.31;101849.72;5058245;28;45412;-55
2022/11/02 10:26:11;;;;;;;;;1.75;1.25;;;;;21.37;45.05;101841.75;5057839;28;46389;-57
2022/11/02 10:28:45;;;;;;;;;4.00;2.00;;;;;21.37;45.47;101846.16;5039844;28;45442;-56
2022/11/02 10:31:26;;;;;;;;;2.50;1.50;;;;;21.36;45.26;101842.69;5058030;28;45253;-55
2022/11/02 10:33:54;;;;;;;;;1.00;1.00;;;;;21.36;45.21;101841.81;5058231;28;45275;-55
2022/11/02 10:36:51;;;;;;;;;2.50;2.00;;;;;21.35;45.18;101840.97;5057652;28;45605;-55
2022/11/02 10:39:47;;;;;;;;;3.75;2.00;;;;;21.33;44.59;101841.97;5057138;27;45801;-57
2022/11/02 10:42:12;;;;;;;;;6.00;2.50;;;;;21.35;45.26;101840.97;5057575;28;45441;-57
2022/11/02 10:44:58;;;;;;;;;3.67;2.00;;;;;21.37;45.29;101843.53;5057990;28;45526;-57
2022/11/02 10:47:27;;;;;;;;;7.00;3.00;;;;;21.40;45.34;101838.13;5057320;28;45485;-56
2022/11/02 10:50:12;;;;;;;;;7.25;4.00;;;;;21.42;45.23;101839.75;5057539;28;45276;-57
2022/11/02 10:52:40;;;;;;;;;2.75;2.75;;;;;21.47;45.51;101839.56;5057717;28;45309;-56
2022/11/02 10:55:16;;;;;;;;;3.00;3.00;;;;;21.52;45.48;101836.72;5056666;28;45228;-55
2022/11/02 10:57:41;;;;;;;;;3.00;3.00;;;;;21.55;45.20;101832.16;5057494;28;46384;-56
2022/11/02 11:00:26;;;;;;;;;6.00;3.50;;;;;21.59;45.21;101832.94;5039329;28;45468;-55
2022/11/02 11:03:11;;;;;;;;;5.50;3.00;;;;;21.65;45.26;101832.66;5057355;28;45390;-57
2022/11/02 11:05:48;;;;;;;;;5.50;2.25;;;;;21.69;45.50;101828.09;5057473;28;45373;-57
2022/11/02 11:08:42;;;;;;;;;7.75;4.25;;;;;21.74;45.36;101826.13;5055745;28;46320;-56
2022/11/02 11:11:14;;;;;;;;;4.00;4.00;;;;;21.79;45.05;101821.47;5057198;28;45432;-55
2022/11/02 11:13:42;;;;;;;;;6.00;2.00;;;;;21.82;45.06;101823.97;5056075;28;45499;-56
2022/11/02 11:16:09;;;;;;;;;8.00;2.00;;;;;21.84;45.15;101819.50;5057323;28;45612;-55
2022/11/02 11:18:36;;;;;;;;;3.00;2.00;;;;;21.90;45.22;101821.84;5057388;28;45417;-56
2022/11/02 11:21:02;;;;;;;;;5.00;3.00;;;;;21.92;45.14;101820.00;5057165;28;45468;-56
2022/11/02 11:23:28;;;;;;;;;3.50;2.50;;;;;21.97;45.26;101816.31;5057167;28;45268;-55
2022/11/02 11:25:56;;;;;;;;;3.25;3.00;;;;;21.99;44.98;101811.81;5057221;28;45307;-48
2022/11/02 11:28:35;;;;;;;;;5.25;3.00;;;;;21.97;45.05;101806.59;5056888;28;46163;-50
2022/11/02 11:31:16;;;;;;;;;6.50;3.00;;;;;22.09;44.95;101816.59;5057010;28;45507;-50
2022/11/02 11:33:47;;;;;;;;;4.25;3.00;;;;;22.11;45.02;101808.59;5057058;28;45481;-57
2022/11/02 11:36:25;;;;;;;;;4.00;3.00;;;;;22.17;45.11;101804.78;5056956;28;45546;-50
2022/11/02 11:38:54;;;;;;;;;4.00;3.00;;;;;22.19;45.12;101803.81;5056787;28;46508;-55
2022/11/02 11:41:21;;;;;;;;;5.00;3.00;;;;;22.23;45.03;101808.00;5055254;28;45359;-55
2022/11/02 11:43:49;;;;;;;;;3.00;2.00;;;;;22.23;44.82;101796.59;5056826;28;45352;-55
2022/11/02 11:46:16;;;;;;;;;2.50;2.00;;;;;22.28;44.80;101791.09;5057059;28;45449;-53
2022/11/02 11:48:47;;;;;;;;;4.25;3.00;;;;;22.31;44.73;101793.59;5056737;28;46539;-55
2022/11/02 11:51:37;;;;;;;;;3.75;2.00;;;;;22.32;44.80;101784.75;5056263;28;45650;-57
2022/11/02 11:54:05;;;;;;;;;2.50;2.00;;;;;22.33;44.92;101781.16;5056945;28;45456;-55